Time;durP1;ratioP1;P1;durP2;ratioP2;P2;SDS_P1;SDS_P2;PMS_P1;PMS_P2;Temp;Humidity;BMP_temperature;BMP_pressure;BME280_temperature;BME280_humidity;BME280_pressure;Samples;Min_cycle;Max_cycle;Signal;HPM_P1;HPM_P2
2022/08/16 00:01:45;;;;;;;11.65;8.40;;;;;;;;;;5072531;28;20029;-69
2022/08/16 00:04:11;;;;;;;10.77;9.30;;;;;;;;;;5072634;28;20023;-69
2022/08/16 00:06:38;;;;;;;12.80;8.93;;;;;;;;;;5072694;28;20021;-69
2022/08/16 00:09:04;;;;;;;13.38;9.65;;;;;;;;;;5072466;28;20017;-69
2022/08/16 00:11:30;;;;;;;12.45;9.52;;;;;;;;;;5072360;28;20487;-69
2022/08/16 00:13:56;;;;;;;10.32;9.27;;;;;;;;;;5072535;28;20064;-69
2022/08/16 00:16:24;;;;;;;9.45;8.52;;;;;;;;;;5072604;28;20021;-69
2022/08/16 00:18:50;;;;;;;9.80;8.00;;;;;;;;;;5072476;28;20037;-68
2022/08/16 00:21:16;;;;;;;8.88;8.07;;;;;;;;;;5072358;28;20025;-69
2022/08/16 00:23:42;;;;;;;9.68;8.13;;;;;;;;;;5072391;28;20483;-68
2022/08/16 00:26:08;;;;;;;8.90;8.00;;;;;;;;;;5072286;28;20379;-69
2022/08/16 00:28:37;;;;;;;11.80;8.55;;;;;;;;;;5072245;28;20494;-69
2022/08/16 00:31:03;;;;;;;9.82;8.88;;;;;;;;;;5072344;28;20079;-69
2022/08/16 00:33:29;;;;;;;9.68;8.45;;;;;;;;;;5075610;28;20027;-69
2022/08/16 00:35:55;;;;;;;8.95;8.05;;;;;;;;;;5081806;28;20426;-69
2022/08/16 00:38:21;;;;;;;10.80;8.63;;;;;;;;;;5072025;28;20062;-69
2022/08/16 00:40:49;;;;;;;9.45;8.45;;;;;;;;;;5072284;28;20082;-69
2022/08/16 00:43:26;;;;;;;8.65;7.82;;;;;;;;;;5072018;28;20060;-69
2022/08/16 00:45:57;;;;;;;9.43;8.43;;;;;;;;;;5072647;28;20017;-69
2022/08/16 00:48:24;;;;;;;11.48;8.40;;;;;;;;;;5072410;28;20104;-69
2022/08/16 00:50:50;;;;;;;9.77;7.90;;;;;;;;;;5072354;28;20017;-69
2022/08/16 00:53:17;;;;;;;10.25;8.38;;;;;;;;;;5072216;28;20032;-68
2022/08/16 00:55:48;;;;;;;10.80;8.45;;;;;;;;;;5071957;28;20069;-66
2022/08/16 00:58:15;;;;;;;12.43;9.00;;;;;;;;;;5072102;28;20033;-69
2022/08/16 01:00:41;;;;;;;8.88;7.97;;;;;;;;;;5073051;28;20696;-69
2022/08/16 01:03:09;;;;;;;9.20;8.30;;;;;;;;;;5075714;28;20024;-70
2022/08/16 01:05:35;;;;;;;9.70;8.75;;;;;;;;;;5074093;28;20391;-69
2022/08/16 01:08:02;;;;;;;10.57;7.95;;;;;;;;;;5075599;28;20104;-69
2022/08/16 01:10:29;;;;;;;9.32;8.30;;;;;;;;;;5075233;28;20021;-69
2022/08/16 01:12:56;;;;;;;9.20;8.23;;;;;;;;;;5075369;28;20028;-69
2022/08/16 01:15:22;;;;;;;9.55;8.63;;;;;;;;;;5075622;28;20099;-69
2022/08/16 01:17:48;;;;;;;9.10;8.13;;;;;;;;;;5075226;28;20028;-69
2022/08/16 01:20:16;;;;;;;11.15;9.13;;;;;;;;;;5075395;28;20025;-69
2022/08/16 01:22:42;;;;;;;10.32;9.20;;;;;;;;;;5075667;28;20017;-69
2022/08/16 01:25:15;;;;;;;10.13;8.98;;;;;;;;;;5075220;28;20071;-69
2022/08/16 01:27:43;;;;;;;10.80;9.70;;;;;;;;;;5075171;28;20032;-68
2022/08/16 01:30:12;;;;;;;9.60;8.70;;;;;;;;;;5075265;28;20104;-69
2022/08/16 01:32:41;;;;;;;11.40;9.10;;;;;;;;;;5075084;28;20070;-68
2022/08/16 01:35:17;;;;;;;12.77;9.63;;;;;;;;;;5089541;28;20027;-68
2022/08/16 01:37:46;;;;;;;10.18;9.13;;;;;;;;;;5074865;28;20563;-68
2022/08/16 01:40:14;;;;;;;11.52;10.20;;;;;;;;;;5074904;28;20028;-69
2022/08/16 01:42:41;;;;;;;10.63;8.82;;;;;;;;;;5075214;28;20406;-68
2022/08/16 01:45:11;;;;;;;12.52;9.00;;;;;;;;;;5074830;28;20025;-68
2022/08/16 01:47:38;;;;;;;13.48;9.20;;;;;;;;;;5074647;28;20468;-68
2022/08/16 01:50:05;;;;;;;9.95;8.90;;;;;;;;;;5074844;28;20031;-69
2022/08/16 01:52:31;;;;;;;10.07;9.02;;;;;;;;;;5074641;28;20021;-67
2022/08/16 01:54:58;;;;;;;11.07;8.82;;;;;;;;;;5075001;28;20020;-68
2022/08/16 01:57:24;;;;;;;10.57;8.85;;;;;;;;;;5074726;28;20052;-67
2022/08/16 01:59:50;;;;;;;10.43;9.05;;;;;;;;;;5074547;28;20046;-67
2022/08/16 02:02:16;;;;;;;11.85;10.68;;;;;;;;;;5074516;28;20013;-69
2022/08/16 02:04:42;;;;;;;10.40;9.30;;;;;;;;;;5074731;28;20032;-68
2022/08/16 02:07:09;;;;;;;10.95;8.60;;;;;;;;;;5074267;28;20032;-68
2022/08/16 02:09:37;;;;;;;9.55;8.57;;;;;;;;;;5074480;28;20071;-67
2022/08/16 02:12:05;;;;;;;9.95;8.70;;;;;;;;;;5073714;28;20028;-69
2022/08/16 02:14:31;;;;;;;9.18;8.02;;;;;;;;;;5074458;28;20017;-69
2022/08/16 02:17:04;;;;;;;10.40;8.35;;;;;;;;;;5074303;28;20448;-68
2022/08/16 02:19:31;;;;;;;9.50;8.60;;;;;;;;;;5074661;28;20425;-67
2022/08/16 02:21:58;;;;;;;9.20;8.27;;;;;;;;;;5074096;28;20017;-68
2022/08/16 02:24:25;;;;;;;9.48;8.40;;;;;;;;;;5074103;28;20028;-67
2022/08/16 02:26:51;;;;;;;11.40;8.20;;;;;;;;;;5074155;28;20017;-69
2022/08/16 02:29:18;;;;;;;11.02;8.50;;;;;;;;;;5073948;28;20028;-68
2022/08/16 02:31:45;;;;;;;10.90;8.80;;;;;;;;;;5073994;28;20017;-68
2022/08/16 02:34:12;;;;;;;11.98;9.07;;;;;;;;;;5084374;28;20016;-69
2022/08/16 02:36:38;;;;;;;8.90;8.00;;;;;;;;;;5077315;28;20530;-68
2022/08/16 02:39:05;;;;;;;12.50;8.88;;;;;;;;;;5072511;28;20042;-68
2022/08/16 02:41:32;;;;;;;9.10;7.88;;;;;;;;;;5073846;28;20027;-69
2022/08/16 02:43:58;;;;;;;10.35;7.57;;;;;;;;;;5073976;28;20047;-69
2022/08/16 02:46:25;;;;;;;10.02;9.02;;;;;;;;;;5073789;28;20471;-69
2022/08/16 02:48:51;;;;;;;11.55;8.55;;;;;;;;;;5073457;28;20066;-69
2022/08/16 02:51:17;;;;;;;10.43;8.35;;;;;;;;;;5073604;28;20013;-69
2022/08/16 02:53:44;;;;;;;11.55;8.98;;;;;;;;;;5073627;28;20032;-69
2022/08/16 02:56:12;;;;;;;9.52;8.52;;;;;;;;;;5073586;28;20013;-69
2022/08/16 02:58:38;;;;;;;9.10;8.20;;;;;;;;;;5073350;28;20089;-69
2022/08/16 03:01:05;;;;;;;9.52;8.52;;;;;;;;;;5073641;28;20028;-69
2022/08/16 03:03:33;;;;;;;9.20;8.27;;;;;;;;;;5073345;28;20029;-69
2022/08/16 03:05:59;;;;;;;8.48;7.68;;;;;;;;;;5072005;28;20501;-69
2022/08/16 03:08:25;;;;;;;9.25;8.35;;;;;;;;;;5073288;28;20032;-69
2022/08/16 03:10:51;;;;;;;9.82;8.65;;;;;;;;;;5073228;28;20095;-69
2022/08/16 03:13:18;;;;;;;12.30;8.23;;;;;;;;;;5073391;28;20025;-69
2022/08/16 03:15:45;;;;;;;10.30;8.48;;;;;;;;;;5073207;28;20028;-69
2022/08/16 03:18:11;;;;;;;8.98;8.13;;;;;;;;;;5072957;28;20113;-69
2022/08/16 03:20:37;;;;;;;11.77;8.45;;;;;;;;;;5072972;28;20024;-69
2022/08/16 03:23:04;;;;;;;12.40;8.23;;;;;;;;;;5073027;28;20024;-70
2022/08/16 03:25:31;;;;;;;9.40;8.48;;;;;;;;;;5072349;28;20093;-69
2022/08/16 03:27:57;;;;;;;10.02;8.13;;;;;;;;;;5072877;28;20016;-68
2022/08/16 03:30:25;;;;;;;11.90;8.73;;;;;;;;;;5082292;28;20033;-69
2022/08/16 03:32:51;;;;;;;10.02;8.32;;;;;;;;;;5075690;28;20107;-69
2022/08/16 03:35:19;;;;;;;12.60;8.98;;;;;;;;;;5087179;28;20107;-68
2022/08/16 03:37:46;;;;;;;9.23;8.00;;;;;;;;;;5072803;28;20087;-68
2022/08/16 03:40:13;;;;;;;8.98;8.07;;;;;;;;;;5072787;28;20025;-69
2022/08/16 03:42:39;;;;;;;11.43;7.53;;;;;;;;;;5072894;28;20055;-69
2022/08/16 03:45:06;;;;;;;12.63;9.48;;;;;;;;;;5070854;28;20063;-68
2022/08/16 03:47:33;;;;;;;12.35;9.02;;;;;;;;;;5073220;28;20024;-68
2022/08/16 03:49:59;;;;;;;11.32;8.25;;;;;;;;;;5072539;28;20052;-68
2022/08/16 03:52:25;;;;;;;10.65;8.38;;;;;;;;;;5072805;28;20053;-69
2022/08/16 03:54:52;;;;;;;9.98;9.00;;;;;;;;;;5072644;28;20025;-69
2022/08/16 03:57:18;;;;;;;11.88;8.55;;;;;;;;;;5072558;28;20383;-68
2022/08/16 03:59:44;;;;;;;13.60;8.75;;;;;;;;;;5072604;28;20029;-67
2022/08/16 04:02:11;;;;;;;9.65;8.35;;;;;;;;;;5072469;28;20017;-67
2022/08/16 04:04:37;;;;;;;11.23;8.43;;;;;;;;;;5072853;28;20025;-67
2022/08/16 04:07:05;;;;;;;9.90;8.07;;;;;;;;;;5072288;28;20040;-67
2022/08/16 04:09:31;;;;;;;14.40;8.90;;;;;;;;;;5072618;28;20475;-67
2022/08/16 04:11:57;;;;;;;12.05;8.30;;;;;;;;;;5072491;28;20098;-67
2022/08/16 04:14:23;;;;;;;10.88;9.02;;;;;;;;;;5072853;28;20024;-67
2022/08/16 04:16:49;;;;;;;14.88;8.85;;;;;;;;;;5072950;28;20021;-67
2022/08/16 04:19:16;;;;;;;9.77;8.10;;;;;;;;;;5072220;28;20055;-68
2022/08/16 04:21:42;;;;;;;9.55;8.55;;;;;;;;;;5072324;28;20017;-67
2022/08/16 04:24:08;;;;;;;10.70;8.52;;;;;;;;;;5072392;28;20021;-67
2022/08/16 04:26:35;;;;;;;10.77;8.35;;;;;;;;;;5072426;28;20032;-67
2022/08/16 04:29:04;;;;;;;9.63;8.45;;;;;;;;;;5072357;28;20028;-67
2022/08/16 04:31:30;;;;;;;14.07;8.45;;;;;;;;;;5072439;28;20060;-69
2022/08/16 04:33:58;;;;;;;13.63;9.35;;;;;;;;;;5080094;28;20016;-66
2022/08/16 04:36:26;;;;;;;12.75;9.48;;;;;;;;;;5080042;28;20049;-66
2022/08/16 04:38:52;;;;;;;11.98;9.10;;;;;;;;;;5076072;28;20479;-65
2022/08/16 04:41:18;;;;;;;11.73;9.43;;;;;;;;;;5076600;28;20025;-65
2022/08/16 04:43:44;;;;;;;11.52;9.35;;;;;;;;;;5075972;28;20024;-66
2022/08/16 04:46:13;;;;;;;13.90;8.20;;;;;;;;;;5076021;28;20016;-69
2022/08/16 04:48:40;;;;;;;10.75;8.48;;;;;;;;;;5075892;28;20021;-68
2022/08/16 04:51:06;;;;;;;19.35;9.98;;;;;;;;;;5075922;28;20104;-68
2022/08/16 04:53:32;;;;;;;12.77;9.00;;;;;;;;;;5075982;28;20021;-68
2022/08/16 04:55:59;;;;;;;16.65;9.02;;;;;;;;;;5076045;28;20426;-68
2022/08/16 04:58:25;;;;;;;14.98;9.45;;;;;;;;;;5075701;28;20074;-69
2022/08/16 05:00:51;;;;;;;11.48;8.77;;;;;;;;;;5089919;28;20017;-70
2022/08/16 05:03:17;;;;;;;11.30;8.32;;;;;;;;;;5075733;28;20087;-68
2022/08/16 05:05:43;;;;;;;9.55;7.88;;;;;;;;;;5075706;28;20024;-69
2022/08/16 05:08:09;;;;;;;11.15;8.73;;;;;;;;;;5075647;28;20521;-68
2022/08/16 05:10:35;;;;;;;9.45;8.07;;;;;;;;;;5075502;28;20032;-68
2022/08/16 05:13:03;;;;;;;10.23;7.78;;;;;;;;;;5075483;28;20032;-70
2022/08/16 05:15:29;;;;;;;11.77;8.38;;;;;;;;;;5075952;28;20024;-66
2022/08/16 05:17:55;;;;;;;11.15;9.57;;;;;;;;;;5075345;28;20033;-69
2022/08/16 05:20:22;;;;;;;15.82;9.68;;;;;;;;;;5075271;28;20094;-69
2022/08/16 05:22:48;;;;;;;13.27;9.15;;;;;;;;;;5075339;28;20464;-69
2022/08/16 05:25:14;;;;;;;14.50;8.77;;;;;;;;;;5075369;28;20103;-66
2022/08/16 05:27:41;;;;;;;10.85;8.18;;;;;;;;;;5075409;28;20364;-69
2022/08/16 05:30:11;;;;;;;11.80;8.63;;;;;;;;;;5075309;28;20021;-70
2022/08/16 05:32:38;;;;;;;12.93;7.82;;;;;;;;;;5075063;28;20020;-70
2022/08/16 05:35:06;;;;;;;13.15;7.82;;;;;;;;;;5089262;28;20025;-69
2022/08/16 05:37:33;;;;;;;10.25;8.23;;;;;;;;;;5074999;28;20044;-67
2022/08/16 05:39:59;;;;;;;10.82;7.70;;;;;;;;;;5074895;28;20041;-68
2022/08/16 05:42:25;;;;;;;11.70;8.82;;;;;;;;;;5075173;28;20024;-66
2022/08/16 05:44:51;;;;;;;13.15;8.48;;;;;;;;;;5074974;28;20020;-67
2022/08/16 05:47:17;;;;;;;15.88;8.23;;;;;;;;;;5073902;28;20467;-67
2022/08/16 05:49:43;;;;;;;16.70;9.18;;;;;;;;;;5074657;28;20480;-68
2022/08/16 05:52:10;;;;;;;13.60;8.52;;;;;;;;;;5074632;28;20384;-66
2022/08/16 05:54:37;;;;;;;18.42;9.10;;;;;;;;;;5074780;28;20032;-67
2022/08/16 05:57:04;;;;;;;15.15;8.90;;;;;;;;;;5074623;28;20026;-68
2022/08/16 05:59:30;;;;;;;10.60;8.52;;;;;;;;;;5074635;28;20037;-68
2022/08/16 06:01:57;;;;;;;10.00;8.15;;;;;;;;;;5074428;28;20017;-68
2022/08/16 06:04:23;;;;;;;16.02;9.57;;;;;;;;;;5074479;28;20032;-68
2022/08/16 06:06:49;;;;;;;13.07;9.02;;;;;;;;;;5074523;28;20037;-68
2022/08/16 06:09:16;;;;;;;10.40;7.80;;;;;;;;;;5074331;28;20035;-66
2022/08/16 06:11:43;;;;;;;9.40;6.35;;;;;;;;;;5074320;28;20051;-67
2022/08/16 06:14:09;;;;;;;11.13;7.25;;;;;;;;;;5074270;28;20031;-68
2022/08/16 06:16:35;;;;;;;11.00;6.95;;;;;;;;;;5074647;28;20459;-68
2022/08/16 06:19:02;;;;;;;11.88;7.18;;;;;;;;;;5073953;28;20041;-68
2022/08/16 06:21:28;;;;;;;14.48;6.85;;;;;;;;;;5074045;28;20066;-68
2022/08/16 06:23:54;;;;;;;8.50;6.47;;;;;;;;;;5074135;28;20029;-68
2022/08/16 06:26:20;;;;;;;8.63;6.70;;;;;;;;;;5073991;28;20020;-68
2022/08/16 06:28:46;;;;;;;11.20;6.10;;;;;;;;;;5074064;28;20029;-68
2022/08/16 06:31:13;;;;;;;10.35;6.20;;;;;;;;;;5074010;28;20018;-68
2022/08/16 06:33:40;;;;;;;11.50;6.78;;;;;;;;;;5079508;28;20030;-68
2022/08/16 06:36:08;;;;;;;8.27;6.38;;;;;;;;;;5082263;28;20486;-67
2022/08/16 06:38:34;;;;;;;7.22;6.47;;;;;;;;;;5073652;28;20038;-66
2022/08/16 06:41:08;;;;;;;8.57;6.60;;;;;;;;;;5073823;28;20028;-67
2022/08/16 06:43:34;;;;;;;13.10;6.88;;;;;;;;;;5073611;28;20024;-68
2022/08/16 06:46:01;;;;;;;13.75;7.38;;;;;;;;;;5073757;28;20463;-68
2022/08/16 06:48:27;;;;;;;12.00;7.05;;;;;;;;;;5074035;28;20021;-68
2022/08/16 06:50:54;;;;;;;8.10;6.80;;;;;;;;;;5073420;28;20048;-68
2022/08/16 06:53:20;;;;;;;7.43;6.15;;;;;;;;;;5073640;28;20029;-69
2022/08/16 06:55:46;;;;;;;8.18;6.60;;;;;;;;;;5073524;28;20017;-68
2022/08/16 06:58:12;;;;;;;11.00;6.72;;;;;;;;;;5073061;28;20475;-69
2022/08/16 07:00:38;;;;;;;7.47;6.47;;;;;;;;;;5073296;28;20023;-69
2022/08/16 07:03:05;;;;;;;7.38;6.57;;;;;;;;;;5073206;28;20032;-69
2022/08/16 07:05:32;;;;;;;9.68;5.75;;;;;;;;;;5073213;28;20378;-69
2022/08/16 07:07:58;;;;;;;7.78;5.95;;;;;;;;;;5073337;28;20074;-69
2022/08/16 07:10:26;;;;;;;11.32;5.97;;;;;;;;;;5073109;28;20063;-69
2022/08/16 07:12:52;;;;;;;7.60;6.30;;;;;;;;;;5073133;28;20020;-69
2022/08/16 07:15:18;;;;;;;8.30;5.97;;;;;;;;;;5073143;28;20479;-69
2022/08/16 07:17:45;;;;;;;9.38;6.28;;;;;;;;;;5072893;28;20021;-69
2022/08/16 07:20:13;;;;;;;7.35;6.55;;;;;;;;;;5072843;28;20024;-69
2022/08/16 07:22:40;;;;;;;10.25;6.43;;;;;;;;;;5072940;28;20039;-69
2022/08/16 07:25:07;;;;;;;7.78;6.20;;;;;;;;;;5073051;28;20020;-69
2022/08/16 07:27:33;;;;;;;10.50;6.90;;;;;;;;;;5072888;28;20044;-69
2022/08/16 07:30:00;;;;;;;8.20;6.85;;;;;;;;;;5071562;28;20020;-69
2022/08/16 07:32:26;;;;;;;9.40;6.25;;;;;;;;;;5073072;28;20034;-69
2022/08/16 07:34:52;;;;;;;11.57;7.22;;;;;;;;;;5086918;28;20024;-69
2022/08/16 07:37:18;;;;;;;9.77;6.07;;;;;;;;;;5072852;28;20390;-69
2022/08/16 07:39:44;;;;;;;7.15;5.70;;;;;;;;;;5072948;28;20028;-69
2022/08/16 07:42:11;;;;;;;11.77;6.70;;;;;;;;;;5072722;28;20044;-69
2022/08/16 07:44:37;;;;;;;6.65;5.35;;;;;;;;;;5073030;28;20123;-69
2022/08/16 07:47:03;;;;;;;7.35;5.40;;;;;;;;;;5072729;28;20029;-68
2022/08/16 07:49:29;;;;;;;7.10;5.60;;;;;;;;;;5072368;28;20594;-69
2022/08/16 07:51:55;;;;;;;10.95;6.35;;;;;;;;;;5072260;28;20491;-69
2022/08/16 07:54:21;;;;;;;6.28;5.32;;;;;;;;;;5072622;28;20021;-69
2022/08/16 07:56:47;;;;;;;6.60;5.47;;;;;;;;;;5072633;28;20030;-68
2022/08/16 07:59:13;;;;;;;6.93;5.38;;;;;;;;;;5072511;28;20033;-69
2022/08/16 08:01:40;;;;;;;8.77;4.90;;;;;;;;;;5072703;28;20025;-69
2022/08/16 08:04:09;;;;;;;6.53;5.18;;;;;;;;;;5072148;28;20537;-69
2022/08/16 08:06:36;;;;;;;5.97;5.38;;;;;;;;;;5072632;28;20024;-69
2022/08/16 08:09:03;;;;;;;5.53;4.63;;;;;;;;;;5071051;28;20024;-69
2022/08/16 08:11:29;;;;;;;6.55;5.10;;;;;;;;;;5075117;28;20024;-69
2022/08/16 08:13:59;;;;;;;7.50;5.57;;;;;;;;;;5076327;28;20025;-68
2022/08/16 08:16:25;;;;;;;6.40;5.03;;;;;;;;;;5076600;28;20099;-69
2022/08/16 08:18:53;;;;;;;5.50;4.65;;;;;;;;;;5076117;28;20055;-68
2022/08/16 08:21:20;;;;;;;6.68;4.90;;;;;;;;;;5076550;28;20020;-69
2022/08/16 08:23:47;;;;;;;10.85;5.30;;;;;;;;;;5076359;28;20029;-69
2022/08/16 08:26:13;;;;;;;7.40;4.78;;;;;;;;;;5076299;28;20070;-68
2022/08/16 08:28:39;;;;;;;6.18;4.60;;;;;;;;;;5076821;28;20024;-69
2022/08/16 08:31:06;;;;;;;8.70;5.25;;;;;;;;;;5076174;28;20352;-69
2022/08/16 08:33:33;;;;;;;9.75;6.78;;;;;;;;;;5080903;28;20013;-69
2022/08/16 08:36:00;;;;;;;6.88;4.60;;;;;;;;;;5085497;28;20051;-69
2022/08/16 08:38:26;;;;;;;35.40;21.17;;;;;;;;;;5075967;28;20039;-69
2022/08/16 08:40:53;;;;;;;19.33;13.65;;;;;;;;;;5076190;28;20021;-69
2022/08/16 08:43:19;;;;;;;9.70;5.93;;;;;;;;;;5075952;28;20024;-68
2022/08/16 08:45:45;;;;;;;15.05;9.98;;;;;;;;;;5076069;28;20024;-68
2022/08/16 08:48:11;;;;;;;9.57;6.65;;;;;;;;;;5075916;28;20024;-69
2022/08/16 08:50:37;;;;;;;10.75;6.70;;;;;;;;;;5075698;28;20017;-69
2022/08/16 08:53:03;;;;;;;8.82;5.75;;;;;;;;;;5075832;28;20020;-69
2022/08/16 08:55:30;;;;;;;9.15;6.70;;;;;;;;;;5075696;28;20095;-69
2022/08/16 08:57:56;;;;;;;7.80;5.95;;;;;;;;;;5075696;28;20012;-69
2022/08/16 09:00:23;;;;;;;9.07;6.80;;;;;;;;;;5075791;28;20066;-69
2022/08/16 09:02:49;;;;;;;8.50;7.18;;;;;;;;;;5075766;28;20024;-69
2022/08/16 09:05:16;;;;;;;8.77;6.88;;;;;;;;;;5075909;28;20037;-69
2022/08/16 09:07:43;;;;;;;10.88;8.00;;;;;;;;;;5075735;28;20052;-69
2022/08/16 09:10:09;;;;;;;9.80;5.10;;;;;;;;;;5075789;28;20375;-69
2022/08/16 09:12:36;;;;;;;10.55;7.57;;;;;;;;;;5075437;28;20069;-69
2022/08/16 09:15:02;;;;;;;10.95;7.10;;;;;;;;;;5075554;28;20491;-69
2022/08/16 09:17:28;;;;;;;9.68;5.90;;;;;;;;;;5075330;28;20025;-69
2022/08/16 09:19:55;;;;;;;9.85;5.95;;;;;;;;;;5075066;28;20068;-69
2022/08/16 09:22:25;;;;;;;6.72;4.82;;;;;;;;;;5075135;28;20024;-69
2022/08/16 09:24:51;;;;;;;10.68;8.50;;;;;;;;;;5075269;28;20020;-69
2022/08/16 09:27:17;;;;;;;10.60;7.47;;;;;;;;;;5075310;28;20036;-68
2022/08/16 09:29:44;;;;;;;9.65;6.90;;;;;;;;;;5075483;28;20025;-69
2022/08/16 09:32:10;;;;;;;6.45;5.50;;;;;;;;;;5075141;28;20029;-69
2022/08/16 09:34:37;;;;;;;8.25;6.47;;;;;;;;;;5088585;28;20035;-69
2022/08/16 09:37:03;;;;;;;9.80;6.50;;;;;;;;;;5074978;28;20095;-69
2022/08/16 09:39:29;;;;;;;10.98;8.30;;;;;;;;;;5075133;28;20101;-69
2022/08/16 09:41:59;;;;;;;8.07;6.28;;;;;;;;;;5074787;28;20048;-69
2022/08/16 09:44:34;;;;;;;8.90;6.60;;;;;;;;;;5075010;28;20021;-69
2022/08/16 09:47:01;;;;;;;7.72;6.32;;;;;;;;;;5073454;28;20054;-69
2022/08/16 09:49:27;;;;;;;6.97;6.22;;;;;;;;;;5074703;28;20032;-69
2022/08/16 09:51:53;;;;;;;8.55;5.90;;;;;;;;;;5074702;28;20454;-69
2022/08/16 09:54:23;;;;;;;10.25;5.47;;;;;;;;;;5074914;28;20111;-69
2022/08/16 09:56:49;;;;;;;7.63;6.32;;;;;;;;;;5074613;28;20016;-69
2022/08/16 09:59:15;;;;;;;7.97;6.30;;;;;;;;;;5074639;28;20025;-70
2022/08/16 10:01:43;;;;;;;6.68;5.28;;;;;;;;;;5074656;28;20074;-70
2022/08/16 10:04:10;;;;;;;9.07;5.78;;;;;;;;;;5074188;28;20545;-69
2022/08/16 10:06:36;;;;;;;9.73;6.22;;;;;;;;;;5074608;28;20021;-70
2022/08/16 10:09:04;;;;;;;7.60;6.05;;;;;;;;;;5074320;28;20094;-69
2022/08/16 10:14:15;;;;;;;9.95;7.43;;;;;;;;;;5074652;28;20047;-69
2022/08/16 10:16:44;;;;;;;8.15;6.20;;;;;;;;;;5074227;28;20100;-69
2022/08/16 10:19:11;;;;;;;6.80;5.10;;;;;;;;;;5073934;28;20490;-70
2022/08/16 10:21:38;;;;;;;7.47;6.65;;;;;;;;;;5074183;28;20500;-70
2022/08/16 10:24:04;;;;;;;8.20;5.65;;;;;;;;;;5074055;28;20028;-70
2022/08/16 10:26:32;;;;;;;9.18;7.07;;;;;;;;;;5074212;28;20104;-70
2022/08/16 10:28:58;;;;;;;8.63;6.28;;;;;;;;;;5074181;28;20016;-70
2022/08/16 10:31:25;;;;;;;8.80;6.57;;;;;;;;;;5073839;28;20020;-70
2022/08/16 10:33:52;;;;;;;11.43;7.60;;;;;;;;;;5080738;28;20063;-70
2022/08/16 10:36:19;;;;;;;6.35;5.75;;;;;;;;;;5080466;28;20036;-70
2022/08/16 10:38:45;;;;;;;8.82;5.38;;;;;;;;;;5073543;28;20046;-70
2022/08/16 10:41:12;;;;;;;8.77;5.15;;;;;;;;;;5073866;28;20028;-70
2022/08/16 10:43:39;;;;;;;6.22;5.63;;;;;;;;;;5073681;28;20103;-70
2022/08/16 10:46:07;;;;;;;8.23;5.70;;;;;;;;;;5073579;28;20569;-70
2022/08/16 10:48:33;;;;;;;9.30;6.63;;;;;;;;;;5073527;28;20021;-69
2022/08/16 10:50:59;;;;;;;10.50;6.40;;;;;;;;;;5073496;28;20031;-69
2022/08/16 10:53:27;;;;;;;6.72;5.95;;;;;;;;;;5073543;28;20032;-70
2022/08/16 10:55:53;;;;;;;9.25;6.28;;;;;;;;;;5073518;28;20043;-68
2022/08/16 10:58:19;;;;;;;7.22;5.65;;;;;;;;;;5073222;28;20021;-70
2022/08/16 11:00:46;;;;;;;7.88;6.10;;;;;;;;;;5072018;28;20111;-69
2022/08/16 11:03:12;;;;;;;8.82;6.20;;;;;;;;;;5073384;28;20025;-70
2022/08/16 11:05:42;;;;;;;9.98;6.05;;;;;;;;;;5073201;28;20024;-70
2022/08/16 11:08:10;;;;;;;7.97;6.10;;;;;;;;;;5073353;28;20038;-69
2022/08/16 11:10:38;;;;;;;10.02;6.80;;;;;;;;;;5073215;28;20166;-70
2022/08/16 11:13:05;;;;;;;8.65;6.57;;;;;;;;;;5072958;28;20379;-70
2022/08/16 11:15:32;;;;;;;7.85;6.45;;;;;;;;;;5073072;28;20035;-70
2022/08/16 11:17:59;;;;;;;10.70;7.03;;;;;;;;;;5072959;28;20025;-70
2022/08/16 11:20:27;;;;;;;8.90;5.90;;;;;;;;;;5073087;28;20442;-71
2022/08/16 11:22:53;;;;;;;10.13;6.47;;;;;;;;;;5071715;28;20466;-70
2022/08/16 11:25:24;;;;;;;7.63;6.82;;;;;;;;;;5072848;28;20036;-70
2022/08/16 11:27:50;;;;;;;11.07;6.80;;;;;;;;;;5072853;28;20024;-70
2022/08/16 11:30:17;;;;;;;12.60;8.05;;;;;;;;;;5072770;28;20024;-70
2022/08/16 11:32:43;;;;;;;8.18;7.15;;;;;;;;;;5072823;28;20025;-70
2022/08/16 11:35:11;;;;;;;6.50;4.80;;;;;;;;;;5086884;28;20028;-70
2022/08/16 11:37:38;;;;;;;7.18;5.40;;;;;;;;;;5071224;28;20040;-71
2022/08/16 11:40:05;;;;;;;8.05;6.85;;;;;;;;;;5072431;28;20146;-70
2022/08/16 11:42:31;;;;;;;6.25;5.63;;;;;;;;;;5072935;28;20028;-70
2022/08/16 11:44:57;;;;;;;9.65;7.95;;;;;;;;;;5072145;28;20025;-70
2022/08/16 11:47:24;;;;;;;8.25;7.32;;;;;;;;;;5072740;28;20479;-70
2022/08/16 11:49:50;;;;;;;12.45;8.90;;;;;;;;;;5072717;28;20033;-70
2022/08/16 11:52:16;;;;;;;7.25;6.45;;;;;;;;;;5072434;28;20070;-70
2022/08/16 11:54:43;;;;;;;10.27;7.90;;;;;;;;;;5072669;28;20027;-70
2022/08/16 11:57:10;;;;;;;9.73;7.32;;;;;;;;;;5072609;28;20120;-70
2022/08/16 11:59:37;;;;;;;12.63;9.27;;;;;;;;;;5071155;28;20040;-70
2022/08/16 12:02:05;;;;;;;10.70;7.75;;;;;;;;;;5072517;28;20108;-70
2022/08/16 12:04:32;;;;;;;7.78;6.70;;;;;;;;;;5072613;28;20116;-70
2022/08/16 12:06:59;;;;;;;8.27;6.57;;;;;;;;;;5072500;28;20055;-70
2022/08/16 12:09:25;;;;;;;9.95;8.93;;;;;;;;;;5072611;28;20021;-70
2022/08/16 12:11:51;;;;;;;10.18;8.07;;;;;;;;;;5072556;28;20103;-71
2022/08/16 12:14:18;;;;;;;12.23;9.25;;;;;;;;;;5072321;28;20024;-71
2022/08/16 12:16:44;;;;;;;9.18;7.35;;;;;;;;;;5072591;28;20020;-71
2022/08/16 12:19:11;;;;;;;9.73;8.77;;;;;;;;;;5072376;28;20500;-71
2022/08/16 12:21:38;;;;;;;8.05;6.50;;;;;;;;;;5072368;28;20029;-70
2022/08/16 12:24:04;;;;;;;8.45;6.38;;;;;;;;;;5072294;28;20031;-71
2022/08/16 12:26:31;;;;;;;8.27;7.18;;;;;;;;;;5072406;28;20548;-70
2022/08/16 12:28:57;;;;;;;15.40;8.07;;;;;;;;;;5072233;28;20082;-71
2022/08/16 12:31:24;;;;;;;8.02;6.78;;;;;;;;;;5072099;28;20024;-71
2022/08/16 12:33:51;;;;;;;8.05;5.85;;;;;;;;;;5079526;28;20051;-71
2022/08/16 12:36:18;;;;;;;9.40;5.90;;;;;;;;;;5078748;28;20043;-71
2022/08/16 12:38:44;;;;;;;8.07;5.53;;;;;;;;;;5071890;28;20483;-71
2022/08/16 12:41:10;;;;;;;9.13;5.97;;;;;;;;;;5072181;28;20060;-70
2022/08/16 12:43:40;;;;;;;10.65;6.07;;;;;;;;;;5071865;28;20503;-70
2022/08/16 12:46:07;;;;;;;7.90;7.20;;;;;;;;;;5072138;28;20028;-70
2022/08/16 12:51:20;;;;;;;7.55;5.82;;;;;;;;;;5072304;28;20430;-70
2022/08/16 12:53:52;;;;;;;9.68;5.70;;;;;;;;;;5071998;28;20423;-70
2022/08/16 12:56:21;;;;;;;8.70;6.32;;;;;;;;;;5072543;28;20035;-69
2022/08/16 12:58:49;;;;;;;8.25;5.32;;;;;;;;;;5075601;28;20064;-70
2022/08/16 13:01:24;;;;;;;6.90;5.45;;;;;;;;;;5075725;28;20020;-69
2022/08/16 13:03:54;;;;;;;10.65;9.55;;;;;;;;;;5075408;28;20078;-70
2022/08/16 13:06:20;;;;;;;9.67;6.43;;;;;;;;;;5075975;28;20379;-70
2022/08/16 13:08:47;;;;;;;9.52;6.45;;;;;;;;;;5075355;28;20315;-70
2022/08/16 13:11:20;;;;;;;9.32;6.20;;;;;;;;;;5075585;28;20324;-71
2022/08/16 13:13:46;;;;;;;6.43;5.70;;;;;;;;;;5075523;28;20094;-70
2022/08/16 13:16:12;;;;;;;8.80;7.00;;;;;;;;;;5075345;28;20013;-70
2022/08/16 13:18:38;;;;;;;5.70;5.10;;;;;;;;;;5075450;28;20024;-70
2022/08/16 13:21:06;;;;;;;6.50;5.88;;;;;;;;;;5074017;28;20471;-70
2022/08/16 13:23:32;;;;;;;9.85;6.45;;;;;;;;;;5075211;28;20074;-70
2022/08/16 13:25:59;;;;;;;8.60;6.53;;;;;;;;;;5075397;28;20111;-71
2022/08/16 13:28:25;;;;;;;9.45;6.35;;;;;;;;;;5075194;28;20115;-70
2022/08/16 13:30:53;;;;;;;7.88;6.45;;;;;;;;;;5075249;28;20046;-70
2022/08/16 13:33:21;;;;;;;6.80;6.10;;;;;;;;;;5077951;28;20028;-71
2022/08/16 13:35:48;;;;;;;7.72;6.35;;;;;;;;;;5086057;28;20129;-70
2022/08/16 13:38:15;;;;;;;7.25;5.55;;;;;;;;;;5074601;28;20135;-70
2022/08/16 13:40:41;;;;;;;8.60;6.07;;;;;;;;;;5074838;28;20509;-69
2022/08/16 13:43:08;;;;;;;9.88;6.40;;;;;;;;;;5075013;28;20208;-68
2022/08/16 13:45:34;;;;;;;6.80;5.05;;;;;;;;;;5074730;28;20035;-68
2022/08/16 13:48:00;;;;;;;7.35;6.10;;;;;;;;;;5074848;28;20028;-69
2022/08/16 13:50:27;;;;;;;7.03;5.22;;;;;;;;;;5074528;28;20103;-70
2022/08/16 13:52:56;;;;;;;6.75;6.05;;;;;;;;;;5074766;28;20024;-70
2022/08/16 13:55:22;;;;;;;6.63;5.20;;;;;;;;;;5074620;28;20024;-71
2022/08/16 13:57:48;;;;;;;8.68;5.40;;;;;;;;;;5075026;28;20023;-70
2022/08/16 14:00:15;;;;;;;6.53;5.13;;;;;;;;;;5074467;28;20483;-69
2022/08/16 14:02:42;;;;;;;6.00;5.38;;;;;;;;;;5074665;28;20063;-68
2022/08/16 14:05:08;;;;;;;7.22;5.85;;;;;;;;;;5074794;28;20037;-68
2022/08/16 14:07:36;;;;;;;8.07;5.32;;;;;;;;;;5073745;28;20044;-70
2022/08/16 14:10:04;;;;;;;8.93;5.05;;;;;;;;;;5074303;28;20082;-70
2022/08/16 14:12:32;;;;;;;10.13;7.72;;;;;;;;;;5074256;28;20016;-70
2022/08/16 14:14:58;;;;;;;6.18;5.57;;;;;;;;;;5074555;28;20387;-70
2022/08/16 14:17:25;;;;;;;7.50;5.15;;;;;;;;;;5074211;28;20012;-70
2022/08/16 14:19:51;;;;;;;6.60;5.70;;;;;;;;;;5074202;28;20112;-70
2022/08/16 14:22:20;;;;;;;6.88;5.80;;;;;;;;;;5073902;28;20175;-69
2022/08/16 14:24:47;;;;;;;9.90;5.88;;;;;;;;;;5074152;28;20463;-70
2022/08/16 14:27:13;;;;;;;8.20;5.13;;;;;;;;;;5072865;28;20425;-70
2022/08/16 14:29:39;;;;;;;8.23;5.78;;;;;;;;;;5074070;28;20021;-69
2022/08/16 14:32:07;;;;;;;7.70;5.53;;;;;;;;;;5074169;28;20036;-69
2022/08/16 14:34:33;;;;;;;6.18;5.57;;;;;;;;;;5085334;28;20036;-69
2022/08/16 14:36:59;;;;;;;7.53;5.57;;;;;;;;;;5074307;28;20486;-69
2022/08/16 14:39:25;;;;;;;9.55;5.93;;;;;;;;;;5073867;28;20029;-69
2022/08/16 14:41:51;;;;;;;6.13;5.53;;;;;;;;;;5073752;28;20021;-69